Terminal Aerodrome Forecast
Issued by NWS

Home | Current Version | Previous Version | Text Only | Print | Product List | Glossary On
Versions: 1 2 3 4 5 6 7 8 9 10 11 12 13 14 15 16 17 18 19 20
000
FTUS44 KTSA 232300 RRA
TAFMLC
TAF
KMLC 232342Z 2400/2424 19012G20KT P6SM SCT250
     FM240900 16010KT P6SM BKN015 PROB30 2409/2415 5SM -TSRA
      BKN050CB
     FM241500 20012G25KT P6SM BKN050
     FM242100 30012G25KT P6SM BKN150=

USA.gov is the U.S. government's official web portal to all federal, state and local government web resources and services.